Ely, Nevada Weather observations

Data are for observation ending at time listed.
 Day   Time    Ave.   Ave.  Ave.  Vector   Max.   Stn.    Total    Solar   Ave.  
  of    of     Air    Rel.  Wind   Wind    Wind   Baro.  Precip.   Rad.    Soil  
Year   Day     Temp.  Hum.  Speed  Dir.    Gust   Pres.                    Temp. 
2015   (PST)    F      %     mph   deg.    mph     mb.     in.     W/m2     F   
------------------------------------------------------------------------------
  58    8:20   29.6    62    7.0   150     10.0   801.6    0.00     413    30.1
  58    8:30   30.8    60    7.2   146     10.1   801.6    0.00     481    30.9
  58    8:40   31.7    59    6.7   142      9.5   801.5    0.00     363    31.5
  58    8:50   32.8    57    6.6   140      9.0   801.4    0.00     522    32.2
  58    9:00   34.4    53    3.8   128      7.2   801.3    0.00     442    33.1
  58    9:10   35.0    51    3.3   152      5.9   801.2    0.00     400    34.0
  58    9:20   36.9    47    1.6   143      4.0   801.1    0.00     576    35.0
  58    9:30   37.9    44    1.3   183      4.2   801.0    0.00     614    36.5
  58    9:40   38.7    43    1.6   114      5.4   800.9    0.00     651    38.2
  58    9:50   38.9    42    1.1    34      3.7   800.8    0.00     678    39.8
  58   10:00   38.8    41    2.9    24      6.1   800.7    0.00     702    41.3
  58   10:10   40.3    36    1.7   148      4.2   800.6    0.00     717    42.8
  58   10:20   41.2    30    2.5   126      7.7   800.4    0.00     766    44.4
  58   10:30   41.3    26    2.0   215      5.6   800.3    0.00     800    45.8
  58   10:40   41.4    28    2.1   145      6.9   800.2    0.00     799    47.1
  58   10:50   41.6    28    5.2   197     10.2   800.0    0.00     812    48.5
  58   11:00   41.8    30    2.9   176      9.4   799.8    0.00     980    49.7
  58   11:10   41.6    29    6.9   139     12.1   799.7    0.00     915    51.1
  58   11:20   41.9    28    4.6   106     10.1   799.5    0.00     699    51.9
  58   11:30   42.1    28    3.7   130      9.0   799.3    0.00     604    52.1
  58   11:40   42.2    28    4.8   117     10.2   799.1    0.00     641    52.0
  58   11:50   42.2    27    5.2   261      8.9   798.9    0.00     490    51.9
  58   12:00   41.4    28    3.8   291      9.8   798.7    0.00     380    51.7
  58   12:10   41.9    29    2.8   190      7.2   798.5    0.00     380    51.3
  58   12:20   41.7    29    2.6   225      4.8   798.3    0.00     294    50.8
  58   12:30   41.9    29    0.4   262      2.1   798.2    0.00     292    50.4
  58   12:40   42.3    29    5.2   222      8.9   798.0    0.00     434    50.1
  58   12:50   42.3    28    3.1   232      6.3   797.9    0.00     404    50.0
  58   13:00   42.5    27    4.2   177      9.1   797.7    0.00     309    50.1
  58   13:10   42.3    28    4.5   171     10.8   797.5    0.00     296    49.9
  58   13:20   42.7    27    2.6   112      6.6   797.3    0.00     425    49.6
  58   13:30   44.0    26    4.8   136     12.1   797.2    0.00     733    49.5
  58   13:40   44.4    25    6.4   130     11.9   797.0    0.00     670    49.9
  58   13:50   43.2    26    6.2   142     13.2   796.8    0.00     261    50.2
  58   14:00   43.5    25    5.5   106     10.0   796.7    0.00     405    50.0
  58   14:10   44.0    25    4.3    91      9.8   796.7    0.00     271    49.8
  58   14:20   43.7    25    6.0   131     12.3   796.6    0.00     226    49.6
  58   14:30   42.8    26    7.9   127     12.8   796.5    0.00     157    49.3
  58   14:40   42.6    28    9.1   114     18.3   796.5    0.00      99    48.7
  58   14:50   41.7    31   11.1   104     18.7   796.5    0.00     108    48.1
  58   15:00   41.6    31   10.8    97     17.1   796.5    0.00     139    47.5
  58   15:10   41.7    31   10.3   113     16.3   796.5    0.00     166    47.0
  58   15:20   41.5    32   10.1   120     15.3   796.5    0.00     176    46.6
  58   15:30   41.5    33   10.7    96     18.3   796.5    0.00     198    46.3
  58   15:40   41.6    32    7.1    90     17.2   796.5    0.00     222    46.1
  58   15:50   41.7    31    6.2   111     11.8   796.4    0.00     160    46.0
  58   16:00   41.6    32    5.5   104     11.4   796.5    0.00     126    45.8
  58   16:10   41.4    31    5.6   106     10.5   796.4    0.00      76    45.6
  58   16:20   41.0    32    6.5   127     10.8   796.3    0.00      50    45.2
  58   16:30   40.8    31    6.4   122     12.6   796.3    0.00      66    44.8
  58   16:40   41.1    31    2.7    94      6.2   796.3    0.00      55    44.4
  58   16:50   41.2    31    3.9   111      7.0   796.4    0.00      33    44.1
  58   17:00   40.5    36    9.4   174     28.1   796.6    0.00      20    43.8
  58   17:10   36.6    62   17.2   202     23.4   796.9    0.00      20    43.5
  58   17:20   35.5    66   17.2   201     22.3   797.0    0.00       8    43.2
  58   17:30   33.9    76   12.0   192     18.2   797.0    0.00       7    42.8
  58   17:40   33.4    79    7.2   182     11.7   797.1    0.00       7    42.4
  58   17:50   33.2    79    6.3   146      9.3   797.1    0.00       1    41.9
  58   18:00   33.4    79    5.1   105      8.6   797.0    0.00       1    41.4
  58   18:10   33.3    76    4.0   103     11.0   796.9    0.00       1    40.9
  58   18:20   32.5    77    6.0   208      7.7   797.0    0.00       1    40.3
  58   18:30   31.1    78    7.5   197      8.8   796.9    0.00       0    39.7
  58   18:40   31.2    78    8.7   192     10.8   796.8    0.00       1    39.2
  58   18:50   31.2    78    8.5   191     10.4   796.8    0.00       0    38.8
  58   19:00   31.5    78    6.9   200      8.6   796.7    0.00       0    38.4
  58   19:10   32.0    76    6.5   191      8.1   796.6    0.00       1    38.2
  58   19:20   32.1    76    3.8   177      7.6   796.7    0.00       1    38.1
  58   19:30   31.5    77    1.2    54      3.7   796.7    0.00       1    37.8
  58   19:40   30.7    79    3.1    58      4.7   796.7    0.00       1    37.6
  58   19:50   30.6    79    3.2    66      4.0   796.7    0.00       1    37.4
  58   20:00   31.0    76    2.0    71      3.6   796.7    0.00       0    37.2
  58   20:10   31.5    74    0.9   280      3.4   796.7    0.00       0    37.1
  58   20:20   31.6    75    0.3   264      2.6   796.8    0.00       0    37.1
  58   20:30   31.9    74    0.5   188      1.8   796.8    0.00       0    37.0
  58   20:40   31.9    74    0.6   200      1.8   796.8    0.00       0    37.0
  58   20:50   31.8    78    1.5    11      3.1   796.9    0.00       0    36.9
  58   21:00   31.5    80    1.0    68      3.4   797.0    0.00       0    36.8
  58   21:10   31.6    80    1.8   122      4.2   796.9    0.00       0    36.7
  58   21:20   31.6    79    3.6   136      5.5   796.8    0.00       1    36.6
  58   21:30   31.6    81    3.2   146      4.9   796.8    0.00       1    36.6
  58   21:40   31.2    83    3.3   185      5.3   796.7    0.00       1    36.5
  58   21:50   31.1    82    3.6   196      5.0   796.7    0.00       1    36.5
  58   22:00   31.1    82    3.2   264      5.3   796.7    0.00       0    36.3
  58   22:10   30.9    84    1.5     1      5.3   796.6    0.00       1    36.2
  58   22:20   31.3    83    3.8   352      5.2   796.7    0.00       1    36.2
  58   22:30   31.3    83    3.4   359      5.8   796.6    0.00       0    36.1
  58   22:40   30.9    85    4.3   356      6.6   796.6    0.00       0    36.1
  58   22:50   30.5    88    4.1   347      6.1   796.6    0.00       0    36.0
  58   23:00   30.1    91    4.2   360      7.0   796.5    0.00       0    35.9
  58   23:10   30.0    92    3.3   345      5.2   796.5    0.00       1    35.7
  58   23:20   30.1    93    3.4   339      5.4   796.4    0.00       1    35.7
  58   23:30   30.0    94    2.3   345      4.4   796.4    0.00       1    35.6
  58   23:40   30.0    94    1.5   334      2.6   796.4    0.00       1    35.5
  58   23:50   30.0    95    0.6   332      2.0   796.3    0.00       1    35.4
  59    0:00   30.1    95    0.0   324      0.9   796.3    0.00       1    35.4
  59    0:10   30.0    95    0.0     0      0.0   796.3    0.00       1    35.4
  59    0:20   30.0    95    0.0    19      0.1   796.2    0.00       2    35.3
  59    0:30   30.0    95    0.0     0      0.0   796.1    0.00       1    35.3
  59    0:40   30.1    95    0.0     0      0.0   796.0    0.00       0    35.2
  59    0:50   29.8    95    0.0     0      0.0   796.0    0.00       0    35.1
  59    1:00   29.9    95    0.0     0      0.0   796.0    0.00       0    35.1
  59    1:10   29.9    95    0.0     0      0.0   795.9    0.00       0    35.1
  59    1:20   30.0    95    0.0     0      0.0   795.9    0.00       0    35.0
  59    1:30   29.9    95    0.0     0      0.0   795.9    0.00       0    35.1
  59    1:40   29.8    95    0.0     0      0.0   795.8    0.00       0    35.0
  59    1:50   29.7    95    0.0     0      0.0   795.9    0.00       0    35.0
  59    2:00   29.8    95    0.0     0      0.0   795.9    0.00       1    34.9
  59    2:10   29.8    95    0.0     0      0.0   795.8    0.00       1    35.0
  59    2:20   29.9    96    0.0     0      0.0   795.7    0.00       1    34.8
  59    2:30   29.8    95    0.0     0      0.0   795.7    0.00       1    34.9
  59    2:40   29.1    95    0.0     0      0.0   795.7    0.00       0    34.8
  59    2:50   28.7    96    0.0     0      0.0   795.7    0.00       1    34.8
  59    3:00   28.6    96    0.0     0      0.0   795.6    0.00       1    34.9
  59    3:10   28.2    96    0.0     0      0.0   795.6    0.00       0    34.8
  59    3:20   27.9    96    0.0     0      0.0   795.6    0.00       1    34.8
  59    3:30   27.8    96    0.0     0      0.0   795.6    0.00       1    34.7
  59    3:40   28.1    96    0.0     0      0.0   795.6    0.00       0    34.7
  59    3:50   28.2    96    0.0     0      0.0   795.6    0.00       1    34.6
  59    4:00   28.0    96    0.0     0      0.0   795.6    0.00       0    34.7
  59    4:10   27.9    96    0.0     0      0.0   795.6    0.00       0    34.6
  59    4:20   28.1    96    0.0     0      0.0   795.6    0.00       1    34.6
  59    4:30   28.1    96    0.0     0      0.0   795.7    0.00       1    34.5
  59    4:40   27.8    96    0.0     0      0.0   795.8    0.00       1    34.5
  59    4:50   27.0    96    0.0     0      0.0   795.8    0.00       0    34.5
  59    5:00   26.4    97    0.0     0      0.0   795.9    0.00       0    34.5
  59    5:10   26.7    97    0.0     0      0.0   795.9    0.00       0    34.5
  59    5:20   27.3    97    0.0     0      0.0   795.9    0.00       1    34.5
  59    5:30   26.1    96    0.0     0      0.0   796.0    0.00       1    34.4
  59    5:40   26.0    96    0.0     0      0.0   796.0    0.00       0    34.4
  59    5:50   26.5    96    0.0     0      0.0   796.0    0.00       0    34.4
  59    6:00   26.6    96    0.0     0      0.0   796.1    0.00       0    34.4
  59    6:10   26.5    96    0.0     0      0.0   796.2    0.00       0    34.3
  59    6:20   26.4    96    0.0     0      0.0   796.2    0.00       0    34.4
  59    6:30   26.6    96    0.0     0      0.0   796.2    0.00       5    34.3
  59    6:40   26.7    96    0.0     0      0.0   796.3    0.00       7    34.4
  59    6:50   27.3    96    0.0     0      0.0   796.4    0.00       7    34.2
  59    7:00   27.4    95    0.0     0      0.0   796.5    0.00       7    34.2
  59    7:10   27.6    95    0.0     0      0.0   796.6    0.00       7    34.2
  59    7:20   27.5    95    0.0     0      0.0   796.7    0.00       7    34.2
  59    7:30   27.8    95    0.0     0      0.0   796.8    0.00      12    34.2
  59    7:40   28.3    95    0.0     0      0.0   796.9    0.00      18    34.2
  59    7:50   28.6    96    0.0     0      0.0   797.1    0.00      20    34.2
  59    8:00   28.8    96    0.0     0      0.0   797.1    0.00      20    34.2
  59    8:10   28.7    96    0.0     0      0.0   797.2    0.00      31    34.2

Return to Ely, Nevada graphs page.


Western Regional Climate Center,wrcc@dri.edu